createdAt,value
2023-01-07T00:00:59.029Z,1024.28
2023-01-07T00:01:59.012Z,1024.28
2023-01-07T00:02:59.057Z,1024.23
2023-01-07T00:03:59.090Z,1024.2
2023-01-07T00:04:59.042Z,1024.21
2023-01-07T00:05:59.021Z,1024.19
2023-01-07T00:06:59.009Z,1024.19
2023-01-07T00:07:59.015Z,1024.2
2023-01-07T00:08:59.031Z,1024.18
2023-01-07T00:09:59.013Z,1024.2
2023-01-07T00:10:59.033Z,1024.19
2023-01-07T00:11:59.047Z,1024.16
2023-01-07T00:12:59.033Z,1024.21
2023-01-07T00:13:59.019Z,1024.2
2023-01-07T00:14:59.040Z,1024.21
2023-01-07T00:15:59.136Z,1024.24
2023-01-07T00:16:59.013Z,1024.24
2023-01-07T00:17:59.038Z,1024.31
2023-01-07T00:18:59.028Z,1024.28
2023-01-07T00:19:59.035Z,1024.31
2023-01-07T00:20:59.040Z,1024.3
2023-01-07T00:21:59.034Z,1024.28
2023-01-07T00:22:59.034Z,1024.22
2023-01-07T00:23:59.048Z,1024.27
2023-01-07T00:24:59.030Z,1024.24
2023-01-07T00:25:59.038Z,1024.24
2023-01-07T00:26:59.043Z,1024.24
2023-01-07T00:27:59.051Z,1024.27
2023-01-07T00:28:59.032Z,1024.24
2023-01-07T00:29:59.270Z,1024.22
2023-01-07T00:30:59.082Z,1024.22
2023-01-07T00:31:59.042Z,1024.18
2023-01-07T00:32:59.023Z,1024.16
2023-01-07T00:33:59.025Z,1024.13
2023-01-07T00:34:59.031Z,1024.13
2023-01-07T00:35:59.038Z,1024.14
2023-01-07T00:36:59.031Z,1024.14
2023-01-07T00:37:59.029Z,1024.13
2023-01-07T00:38:59.045Z,1024.16
2023-01-07T00:39:59.035Z,1024.12
2023-01-07T00:40:59.052Z,1024.15
2023-01-07T00:41:59.028Z,1024.12
2023-01-07T00:42:59.031Z,1024.15
2023-01-07T00:43:59.027Z,1024.14
2023-01-07T00:44:59.033Z,1024.2
2023-01-07T00:45:59.053Z,1024.17
2023-01-07T00:46:59.111Z,1024.12
2023-01-07T00:47:59.044Z,1024.13
2023-01-07T00:48:59.038Z,1024.12
2023-01-07T00:49:59.033Z,1024.15
2023-01-07T00:50:59.058Z,1024.12
2023-01-07T00:51:59.036Z,1024.12
2023-01-07T00:52:59.030Z,1024.13
2023-01-07T00:53:59.030Z,1024.12
2023-01-07T00:54:59.041Z,1024.13
2023-01-07T00:55:59.025Z,1024.13
2023-01-07T00:56:59.024Z,1024.16
2023-01-07T00:57:59.017Z,1024.16
2023-01-07T00:58:59.027Z,1024.07
2023-01-07T00:59:59.011Z,1024.08
2023-01-07T01:00:59.155Z,1023.98
2023-01-07T01:01:59.110Z,1024.01
2023-01-07T01:02:59.066Z,1024.05
2023-01-07T01:03:59.011Z,1024.03
2023-01-07T01:04:59.013Z,1024.1
2023-01-07T01:05:59.057Z,1024.06
2023-01-07T01:06:59.019Z,1024.06
2023-01-07T01:07:59.011Z,1024.04
2023-01-07T01:08:59.010Z,1024.04
2023-01-07T01:09:59.023Z,1024.05
2023-01-07T01:10:59.032Z,1024.1
2023-01-07T01:11:59.033Z,1024.13
2023-01-07T01:12:59.009Z,1024.07
2023-01-07T01:13:59.012Z,1024.13
2023-01-07T01:14:59.011Z,1024.13
2023-01-07T01:15:59.077Z,1024.14
2023-01-07T01:16:59.014Z,1024.11
2023-01-07T01:17:59.013Z,1024.13
2023-01-07T01:18:59.015Z,1024.1
2023-01-07T01:19:59.133Z,1024.11
2023-01-07T01:20:59.036Z,1024.14
2023-01-07T01:21:59.026Z,1024.18
2023-01-07T01:22:59.027Z,1024.13
2023-01-07T01:23:59.018Z,1024.15
2023-01-07T01:24:59.030Z,1024.14
2023-01-07T01:25:59.128Z,1024.16
2023-01-07T01:26:59.007Z,1024.17
2023-01-07T01:27:59.027Z,1024.2
2023-01-07T01:28:59.049Z,1024.21
2023-01-07T01:29:59.028Z,1024.22
2023-01-07T01:30:59.040Z,1024.22
2023-01-07T01:31:59.029Z,1024.2
2023-01-07T01:32:59.033Z,1024.23
2023-01-07T01:33:59.038Z,1024.2
2023-01-07T01:34:59.024Z,1024.19
2023-01-07T01:35:59.034Z,1024.15
2023-01-07T01:36:59.029Z,1024.14
2023-01-07T01:37:59.020Z,1024.16
2023-01-07T01:38:59.020Z,1024.13
2023-01-07T01:39:59.023Z,1024.15
2023-01-07T01:40:59.040Z,1024.17
2023-01-07T01:41:59.030Z,1024.12
2023-01-07T01:42:59.038Z,1024.15
2023-01-07T01:43:59.028Z,1024.11
2023-01-07T01:44:59.046Z,1024.11
2023-01-07T01:45:59.046Z,1024.08
2023-01-07T01:46:59.160Z,1024.1
2023-01-07T01:47:59.025Z,1024.08
2023-01-07T01:48:59.025Z,1024.08
2023-01-07T01:49:59.040Z,1024.1
2023-01-07T01:50:59.051Z,1024.07
2023-01-07T01:51:59.032Z,1024.07
2023-01-07T01:52:59.023Z,1024.01
2023-01-07T01:53:59.006Z,1023.96
2023-01-07T01:54:59.030Z,1023.98
2023-01-07T01:55:59.041Z,1023.98
2023-01-07T01:56:59.061Z,1023.96
2023-01-07T01:57:59.029Z,1023.96
2023-01-07T01:58:59.023Z,1023.97
2023-01-07T01:59:59.033Z,1023.99
2023-01-07T02:00:59.161Z,1023.99
2023-01-07T02:01:59.173Z,1023.96
2023-01-07T02:02:59.085Z,1023.97
2023-01-07T02:03:59.029Z,1023.95
2023-01-07T02:04:59.053Z,1023.98
2023-01-07T02:05:59.091Z,1023.98
2023-01-07T02:06:59.026Z,1023.94
2023-01-07T02:07:59.026Z,1023.98
2023-01-07T02:08:59.025Z,1023.98
2023-01-07T02:09:59.013Z,1024.01
2023-01-07T02:10:59.036Z,1023.95
2023-01-07T02:11:59.001Z,1023.95
2023-01-07T02:12:59.005Z,1023.96
2023-01-07T02:13:59.004Z,1023.97
2023-01-07T02:14:59.006Z,1024.03
2023-01-07T02:15:59.066Z,1023.98
2023-01-07T02:16:58.999Z,1024.15
2023-01-07T02:17:59.005Z,1024.05
2023-01-07T02:18:59.014Z,1024.13
2023-01-07T02:19:59.006Z,1024.1
2023-01-07T02:20:59.025Z,1024.09
2023-01-07T02:21:59.016Z,1024.11
2023-01-07T02:22:59.015Z,1024.07
2023-01-07T02:23:59.008Z,1024.15
2023-01-07T02:24:59.022Z,1024
2023-01-07T02:25:59.022Z,1024.01
2023-01-07T02:26:59.005Z,1024.03
2023-01-07T02:27:59.007Z,1023.98
2023-01-07T02:28:58.997Z,1023.89
2023-01-07T02:29:59.006Z,1023.97
2023-01-07T02:30:59.029Z,1023.97
2023-01-07T02:31:59.084Z,1023.9
2023-01-07T02:32:59.000Z,1023.88
2023-01-07T02:33:59.027Z,1023.86
2023-01-07T02:34:59.010Z,1023.88
2023-01-07T02:35:59.049Z,1023.93
2023-01-07T02:36:59.021Z,1023.92
2023-01-07T02:37:59.025Z,1023.91
2023-01-07T02:38:59.039Z,1023.94
2023-01-07T02:39:59.029Z,1023.95
2023-01-07T02:40:59.047Z,1023.89
2023-01-07T02:41:59.055Z,1023.87
2023-01-07T02:42:59.024Z,1023.91
2023-01-07T02:43:59.030Z,1023.81
2023-01-07T02:44:59.023Z,1023.8
2023-01-07T02:45:59.245Z,1023.81
2023-01-07T02:46:59.018Z,1023.76
2023-01-07T02:47:59.016Z,1023.78
2023-01-07T02:48:59.006Z,1023.81
2023-01-07T02:49:59.040Z,1023.84
2023-01-07T02:50:59.049Z,1023.8
2023-01-07T02:51:59.051Z,1023.8
2023-01-07T02:52:59.028Z,1023.76
2023-01-07T02:53:59.015Z,1023.81
2023-01-07T02:54:59.027Z,1023.8
2023-01-07T02:55:59.031Z,1023.76
2023-01-07T02:56:59.007Z,1023.78
2023-01-07T02:57:59.015Z,1023.76
2023-01-07T02:58:59.026Z,1023.74
2023-01-07T02:59:59.008Z,1023.77
2023-01-07T03:00:59.194Z,1023.77
2023-01-07T03:01:59.128Z,1023.74
2023-01-07T03:02:59.020Z,1023.77
2023-01-07T03:03:59.083Z,1023.81
2023-01-07T03:04:59.016Z,1023.84
2023-01-07T03:05:59.039Z,1023.81
2023-01-07T03:06:59.016Z,1023.81
2023-01-07T03:07:59.034Z,1023.82
2023-01-07T03:08:59.001Z,1023.8
2023-01-07T03:09:59.018Z,1023.81
2023-01-07T03:10:59.028Z,1023.8
2023-01-07T03:11:59.029Z,1023.77
2023-01-07T03:12:59.020Z,1023.77
2023-01-07T03:13:59.021Z,1023.82
2023-01-07T03:14:59.017Z,1023.75
2023-01-07T03:15:59.042Z,1023.75
2023-01-07T03:16:59.021Z,1023.77
2023-01-07T03:17:59.011Z,1023.77
2023-01-07T03:18:58.998Z,1023.81
2023-01-07T03:19:58.998Z,1023.77
2023-01-07T03:20:59.028Z,1023.76
2023-01-07T03:21:59.006Z,1023.75
2023-01-07T03:22:58.999Z,1023.78
2023-01-07T03:23:58.999Z,1023.75
2023-01-07T03:24:58.999Z,1023.81
2023-01-07T03:25:59.024Z,1023.81
2023-01-07T03:26:59.008Z,1023.81
2023-01-07T03:27:58.997Z,1023.82
2023-01-07T03:28:58.998Z,1023.81
2023-01-07T03:29:59.005Z,1023.77
2023-01-07T03:30:59.214Z,1023.77
2023-01-07T03:31:59.048Z,1023.77
2023-01-07T03:32:59.002Z,1023.7
2023-01-07T03:33:59.001Z,1023.7
2023-01-07T03:34:59.009Z,1023.72
2023-01-07T03:35:59.021Z,1023.74
2023-01-07T03:36:59.011Z,1023.74
2023-01-07T03:37:59.014Z,1023.74
2023-01-07T03:38:59.011Z,1023.72
2023-01-07T03:39:59.001Z,1023.64
2023-01-07T03:40:59.014Z,1023.65
2023-01-07T03:41:59.019Z,1023.67
2023-01-07T03:42:59.001Z,1023.67
2023-01-07T03:43:59.031Z,1023.67
2023-01-07T03:44:59.015Z,1023.64
2023-01-07T03:45:59.146Z,1023.6
2023-01-07T03:46:59.040Z,1023.65
2023-01-07T03:47:59.033Z,1023.61
2023-01-07T03:48:59.015Z,1023.64
2023-01-07T03:49:59.011Z,1023.63
2023-01-07T03:50:59.033Z,1023.6
2023-01-07T03:51:59.024Z,1023.6
2023-01-07T03:52:59.037Z,1023.56
2023-01-07T03:53:59.000Z,1023.53
2023-01-07T03:54:59.017Z,1023.46
2023-01-07T03:55:59.029Z,1023.51
2023-01-07T03:56:59.039Z,1023.57
2023-01-07T03:57:59.089Z,1023.52
2023-01-07T03:58:59.027Z,1023.51
2023-01-07T03:59:58.997Z,1023.49
2023-01-07T04:00:59.093Z,1023.49
2023-01-07T04:01:59.271Z,1023.51
2023-01-07T04:02:59.006Z,1023.5
2023-01-07T04:04:00.698Z,1023.44
2023-01-07T04:04:59.092Z,1023.39
2023-01-07T04:05:59.027Z,1023.44
2023-01-07T04:06:59.017Z,1023.44
2023-01-07T04:07:59.015Z,1023.42
2023-01-07T04:08:59.042Z,1023.44
2023-01-07T04:09:59.003Z,1023.46
2023-01-07T04:10:59.030Z,1023.41
2023-01-07T04:11:59.022Z,1023.42
2023-01-07T04:12:59.016Z,1023.42
2023-01-07T04:13:59.028Z,1023.4
2023-01-07T04:14:59.369Z,1023.39
2023-01-07T04:15:59.018Z,1023.36
2023-01-07T04:16:59.028Z,1023.34
2023-01-07T04:17:59.023Z,1023.3
2023-01-07T04:18:59.034Z,1023.33
2023-01-07T04:19:59.038Z,1023.29
2023-01-07T04:20:59.012Z,1023.29
2023-01-07T04:21:59.016Z,1023.31
2023-01-07T04:22:59.039Z,1023.41
2023-01-07T04:23:59.100Z,1023.39
2023-01-07T04:24:59.101Z,1023.35
2023-01-07T04:25:59.019Z,1023.35
2023-01-07T04:26:59.040Z,1023.41
2023-01-07T04:27:59.009Z,1023.37
2023-01-07T04:28:59.006Z,1023.39
2023-01-07T04:29:59.008Z,1023.37
2023-01-07T04:30:59.108Z,1023.37
2023-01-07T04:31:59.168Z,1023.35
2023-01-07T04:32:59.002Z,1023.38
2023-01-07T04:33:58.998Z,1023.38
2023-01-07T04:34:59.001Z,1023.38
2023-01-07T04:35:59.018Z,1023.38
2023-01-07T04:36:59.129Z,1023.38
2023-01-07T04:37:59.024Z,1023.38
2023-01-07T04:38:59.008Z,1023.38
2023-01-07T04:39:59.001Z,1023.38
2023-01-07T04:40:59.022Z,1023.34
2023-01-07T04:41:58.999Z,1023.35
2023-01-07T04:42:59.003Z,1023.37
2023-01-07T04:43:59.012Z,1023.35
2023-01-07T04:44:59.007Z,1023.34
2023-01-07T04:45:59.195Z,1023.34
2023-01-07T04:46:59.038Z,1023.36
2023-01-07T04:47:59.021Z,1023.28
2023-01-07T04:48:59.003Z,1023.3
2023-01-07T04:49:59.006Z,1023.29
2023-01-07T04:50:59.030Z,1023.25
2023-01-07T04:51:59.007Z,1023.24
2023-01-07T04:52:58.997Z,1023.28
2023-01-07T04:53:59.017Z,1023.25
2023-01-07T04:54:59.026Z,1023.23
2023-01-07T04:55:59.035Z,1023.28
2023-01-07T04:56:59.027Z,1023.27
2023-01-07T04:57:59.027Z,1023.27
2023-01-07T04:58:59.025Z,1023.25
2023-01-07T04:59:59.022Z,1023.26
2023-01-07T05:00:59.178Z,1023.25
2023-01-07T05:01:59.182Z,1023.23
2023-01-07T05:02:59.030Z,1023.24
2023-01-07T05:03:59.213Z,1023.21
2023-01-07T05:04:59.030Z,1023.19
2023-01-07T05:05:59.036Z,1023.18
2023-01-07T05:06:59.022Z,1023.16
2023-01-07T05:07:59.019Z,1023.18
2023-01-07T05:08:59.029Z,1023.18
2023-01-07T05:09:59.010Z,1023.18
2023-01-07T05:10:59.026Z,1023.14
2023-01-07T05:11:59.023Z,1023.16
2023-01-07T05:12:59.027Z,1023.16
2023-01-07T05:13:59.016Z,1023.13
2023-01-07T05:14:58.999Z,1023.19
2023-01-07T05:15:59.058Z,1023.16
2023-01-07T05:16:59.032Z,1023.19
2023-01-07T05:17:59.023Z,1023.13
2023-01-07T05:18:59.019Z,1023.15
2023-01-07T05:19:59.025Z,1023.13
2023-01-07T05:20:59.018Z,1023.17
2023-01-07T05:22:00.682Z,1023.14
2023-01-07T05:22:59.016Z,1023.2
2023-01-07T05:23:59.014Z,1023.17
2023-01-07T05:24:59.024Z,1023.16
2023-01-07T05:25:59.042Z,1023.2
2023-01-07T05:26:59.061Z,1023.2
2023-01-07T05:27:59.021Z,1023.22
2023-01-07T05:28:59.002Z,1023.2
2023-01-07T05:29:59.028Z,1023.24
2023-01-07T05:30:59.168Z,1023.19
2023-01-07T05:31:59.014Z,1023.17
2023-01-07T05:32:59.048Z,1023.14
2023-01-07T05:33:59.006Z,1023.17
2023-01-07T05:34:59.025Z,1023.2
2023-01-07T05:35:59.023Z,1023.14
2023-01-07T05:36:58.999Z,1023.08
2023-01-07T05:37:59.007Z,1023.13
2023-01-07T05:38:59.007Z,1023.12
2023-01-07T05:39:59.012Z,1023.12
2023-01-07T05:40:59.023Z,1023.08
2023-01-07T05:41:59.023Z,1023.06
2023-01-07T05:42:59.014Z,1023.06
2023-01-07T05:43:59.003Z,1023.1
2023-01-07T05:44:59.000Z,1023.12
2023-01-07T05:45:59.133Z,1023.14
2023-01-07T05:46:59.007Z,1023.1
2023-01-07T05:47:59.021Z,1023.12
2023-01-07T05:48:59.003Z,1023.14
2023-01-07T05:49:59.000Z,1023.15
2023-01-07T05:50:59.015Z,1023.15
2023-01-07T05:51:59.020Z,1023.15
2023-01-07T05:52:59.016Z,1023.13
2023-01-07T05:53:59.007Z,1023.13
2023-01-07T05:54:59.017Z,1023.13
2023-01-07T05:55:59.000Z,1023.14
2023-01-07T05:56:59.013Z,1023.15
2023-01-07T05:57:59.039Z,1023.11
2023-01-07T05:58:59.023Z,1023.16
2023-01-07T05:59:59.011Z,1023.15
2023-01-07T06:00:59.089Z,1023.16
2023-01-07T06:01:59.020Z,1023.17
2023-01-07T06:02:59.046Z,1023.18
2023-01-07T06:03:59.017Z,1023.14
2023-01-07T06:04:59.098Z,1023.21
2023-01-07T06:05:59.023Z,1023.18
2023-01-07T06:06:59.041Z,1023.15
2023-01-07T06:07:59.027Z,1023.15
2023-01-07T06:08:59.012Z,1023.15
2023-01-07T06:09:59.924Z,1023.15
2023-01-07T06:10:59.024Z,1023.17
2023-01-07T06:11:59.022Z,1023.21
2023-01-07T06:12:59.045Z,1023.2
2023-01-07T06:13:59.023Z,1023.24
2023-01-07T06:14:59.024Z,1023.21
2023-01-07T06:15:59.051Z,1023.18
2023-01-07T06:16:59.033Z,1023.22
2023-01-07T06:17:59.037Z,1023.17
2023-01-07T06:18:59.027Z,1023.23
2023-01-07T06:19:59.028Z,1023.25
2023-01-07T06:20:59.021Z,1023.23
2023-01-07T06:21:59.015Z,1023.28
2023-01-07T06:22:59.028Z,1023.21
2023-01-07T06:23:59.024Z,1023.23
2023-01-07T06:24:59.013Z,1023.27
2023-01-07T06:25:59.014Z,1023.26
2023-01-07T06:26:59.030Z,1023.34
2023-01-07T06:27:59.039Z,1023.29
2023-01-07T06:28:59.010Z,1023.23
2023-01-07T06:29:59.005Z,1023.26
2023-01-07T06:30:59.115Z,1023.31
2023-01-07T06:31:59.024Z,1023.3
2023-01-07T06:32:59.029Z,1023.26
2023-01-07T06:33:59.020Z,1023.24
2023-01-07T06:34:59.014Z,1023.24
2023-01-07T06:35:59.023Z,1023.28
2023-01-07T06:36:59.005Z,1023.28
2023-01-07T06:37:59.031Z,1023.3
2023-01-07T06:38:59.017Z,1023.29
2023-01-07T06:39:59.020Z,1023.29
2023-01-07T06:40:59.005Z,1023.31
2023-01-07T06:41:59.013Z,1023.29
2023-01-07T06:42:59.031Z,1023.3
2023-01-07T06:43:59.011Z,1023.28
2023-01-07T06:44:59.010Z,1023.34
2023-01-07T06:45:59.064Z,1023.29
2023-01-07T06:46:59.001Z,1023.29
2023-01-07T06:47:59.022Z,1023.28
2023-01-07T06:48:59.015Z,1023.27
2023-01-07T06:49:59.012Z,1023.29
2023-01-07T06:50:59.008Z,1023.26
2023-01-07T06:51:59.000Z,1023.29
2023-01-07T06:52:59.025Z,1023.34
2023-01-07T06:53:59.012Z,1023.34
2023-01-07T06:54:59.008Z,1023.28
2023-01-07T06:55:59.011Z,1023.28
2023-01-07T06:56:59.006Z,1023.39
2023-01-07T06:57:59.023Z,1023.24
2023-01-07T06:58:59.008Z,1023.34
2023-01-07T06:59:58.999Z,1023.29
2023-01-07T07:00:59.014Z,1023.37
2023-01-07T07:01:59.125Z,1023.45
2023-01-07T07:02:59.234Z,1023.42
2023-01-07T07:03:59.004Z,1023.4
2023-01-07T07:04:59.008Z,1023.42
2023-01-07T07:05:59.011Z,1023.43
2023-01-07T07:06:59.005Z,1023.36
2023-01-07T07:07:59.027Z,1023.4
2023-01-07T07:08:59.004Z,1023.38
2023-01-07T07:09:59.004Z,1023.41
2023-01-07T07:10:59.004Z,1023.38
2023-01-07T07:11:59.011Z,1023.38
2023-01-07T07:12:59.036Z,1023.41
2023-01-07T07:13:59.017Z,1023.41
2023-01-07T07:14:59.016Z,1023.41
2023-01-07T07:15:59.105Z,1023.39
2023-01-07T07:16:59.020Z,1023.41
2023-01-07T07:17:59.042Z,1023.35
2023-01-07T07:18:59.030Z,1023.36
2023-01-07T07:19:59.022Z,1023.37
2023-01-07T07:20:59.021Z,1023.37
2023-01-07T07:21:59.011Z,1023.35
2023-01-07T07:22:59.031Z,1023.37
2023-01-07T07:23:59.002Z,1023.34
2023-01-07T07:24:59.020Z,1023.36
2023-01-07T07:25:59.021Z,1023.4
2023-01-07T07:26:59.039Z,1023.4
2023-01-07T07:27:59.042Z,1023.31
2023-01-07T07:28:59.013Z,1023.43
2023-01-07T07:29:59.022Z,1023.42
2023-01-07T07:30:59.098Z,1023.45
2023-01-07T07:31:59.103Z,1023.44
2023-01-07T07:32:59.059Z,1023.48
2023-01-07T07:33:59.026Z,1023.4
2023-01-07T07:34:59.104Z,1023.41
2023-01-07T07:35:58.998Z,1023.48
2023-01-07T07:36:59.022Z,1023.46
2023-01-07T07:37:59.130Z,1023.43
2023-01-07T07:38:59.017Z,1023.43
2023-01-07T07:39:59.020Z,1023.43
2023-01-07T07:40:59.025Z,1023.46
2023-01-07T07:41:59.017Z,1023.38
2023-01-07T07:43:12.022Z,1023.45
2023-01-07T07:43:59.241Z,1023.43
2023-01-07T07:44:59.014Z,1023.4
2023-01-07T07:45:59.023Z,1023.41
2023-01-07T07:46:59.097Z,1023.48
2023-01-07T07:47:59.038Z,1023.41
2023-01-07T07:48:59.028Z,1023.45
2023-01-07T07:49:59.024Z,1023.41
2023-01-07T07:50:59.008Z,1023.42
2023-01-07T07:51:59.025Z,1023.43
2023-01-07T07:52:59.032Z,1023.4
2023-01-07T07:53:59.005Z,1023.45
2023-01-07T07:55:19.990Z,1023.42
2023-01-07T07:55:59.023Z,1023.36
2023-01-07T07:56:59.033Z,1023.41
2023-01-07T07:57:59.052Z,1023.33
2023-01-07T07:58:59.053Z,1023.34
2023-01-07T07:59:59.008Z,1023.39
2023-01-07T08:00:59.055Z,1023.39
2023-01-07T08:01:59.082Z,1023.34
2023-01-07T08:02:59.107Z,1023.35
2023-01-07T08:03:58.998Z,1023.37
2023-01-07T08:04:59.007Z,1023.33
2023-01-07T08:05:59.003Z,1023.29
2023-01-07T08:06:59.011Z,1023.26
2023-01-07T08:07:59.029Z,1023.23
2023-01-07T08:08:59.019Z,1023.2
2023-01-07T08:09:59.008Z,1023.17
2023-01-07T08:10:59.003Z,1023.17
2023-01-07T08:11:59.004Z,1023.13
2023-01-07T08:12:59.021Z,1023.11
2023-01-07T08:13:58.998Z,1023.1
2023-01-07T08:15:36.152Z,1023.01
2023-01-07T08:16:35.016Z,1023.05
2023-01-07T08:17:34.915Z,1023.02
2023-01-07T08:18:34.923Z,1023.06
2023-01-07T08:19:34.905Z,1023.02
2023-01-07T08:20:34.899Z,1023.02
2023-01-07T08:21:34.902Z,1022.97
2023-01-07T08:22:34.910Z,1023
2023-01-07T08:23:34.938Z,1022.96
2023-01-07T08:24:34.891Z,1022.95
2023-01-07T08:25:34.907Z,1022.92
2023-01-07T08:26:34.895Z,1022.92
2023-01-07T08:27:34.896Z,1022.92
2023-01-07T08:28:34.913Z,1022.85
2023-01-07T08:29:34.901Z,1022.88
2023-01-07T08:30:34.884Z,1022.88
2023-01-07T08:31:34.936Z,1022.99
2023-01-07T08:32:34.902Z,1023.03
2023-01-07T08:33:34.911Z,1023.05
2023-01-07T08:34:34.893Z,1023.12
2023-01-07T08:35:34.893Z,1023.04
2023-01-07T08:36:34.945Z,1023.12
2023-01-07T08:37:34.917Z,1023.02
2023-01-07T08:38:34.921Z,1023.05
2023-01-07T08:39:34.957Z,1023.05
2023-01-07T08:40:34.874Z,1023.05
2023-01-07T08:41:34.927Z,1023.14
2023-01-07T08:42:34.892Z,1023.07
2023-01-07T08:43:34.909Z,1023.1
2023-01-07T08:44:34.894Z,1023.02
2023-01-07T08:45:34.947Z,1023.11
2023-01-07T08:46:34.996Z,1023.01
2023-01-07T08:47:34.894Z,1023.03
2023-01-07T08:48:34.912Z,1023.08
2023-01-07T08:49:34.901Z,1023.08
2023-01-07T08:50:34.887Z,1023.08
2023-01-07T08:51:34.896Z,1023.07
2023-01-07T08:52:34.898Z,1023.04
2023-01-07T08:53:34.937Z,1023.05
2023-01-07T08:54:34.896Z,1023.07
2023-01-07T08:55:34.880Z,1023.07
2023-01-07T08:56:34.879Z,1023.12
2023-01-07T08:57:34.881Z,1023.15
2023-01-07T08:58:34.913Z,1023.15
2023-01-07T08:59:34.882Z,1023.11
2023-01-07T09:00:34.951Z,1023.16
2023-01-07T09:01:35.061Z,1023.02
2023-01-07T09:02:34.989Z,1023.05
2023-01-07T09:03:34.928Z,1023.11
2023-01-07T09:04:34.877Z,1023.11
2023-01-07T09:05:35.384Z,1023.21
2023-01-07T09:06:34.880Z,1023.16
2023-01-07T09:07:34.883Z,1023.11
2023-01-07T09:08:34.890Z,1023.15
2023-01-07T09:09:34.880Z,1023.12
2023-01-07T09:10:34.882Z,1023.12
2023-01-07T09:11:34.905Z,1023.07
2023-01-07T09:12:34.883Z,1023.13
2023-01-07T09:13:34.904Z,1023.1
2023-01-07T09:14:34.877Z,1023.08
2023-01-07T09:15:34.883Z,1023.16
2023-01-07T09:16:34.969Z,1023.08
2023-01-07T09:17:34.876Z,1023.1
2023-01-07T09:18:34.892Z,1023.1
2023-01-07T09:19:34.882Z,1023.1
2023-01-07T09:20:34.883Z,1023.1
2023-01-07T09:21:34.897Z,1023.01
2023-01-07T09:22:34.892Z,1023.1
2023-01-07T09:23:34.918Z,1023.13
2023-01-07T09:24:35.061Z,1023.1
2023-01-07T09:25:34.900Z,1023.11
2023-01-07T09:26:34.892Z,1023.08
2023-01-07T09:27:34.891Z,1023.07
2023-01-07T09:28:34.911Z,1023.02
2023-01-07T09:29:34.894Z,1023.06
2023-01-07T09:30:34.883Z,1023.06
2023-01-07T09:31:35.184Z,1023.02
2023-01-07T09:32:34.898Z,1023.06
2023-01-07T09:33:34.906Z,1023
2023-01-07T09:34:34.907Z,1022.98
2023-01-07T09:35:34.889Z,1022.96
2023-01-07T09:36:34.892Z,1022.97
2023-01-07T09:37:34.904Z,1022.97
2023-01-07T09:38:34.909Z,1022.99
2023-01-07T09:39:34.890Z,1022.99
2023-01-07T09:40:34.881Z,1022.99
2023-01-07T09:41:34.895Z,1023.05
2023-01-07T09:42:34.888Z,1023.04
2023-01-07T09:44:00.067Z,1023.06
2023-01-07T09:44:34.894Z,1023.07
2023-01-07T09:45:34.979Z,1023.01
2023-01-07T09:46:34.896Z,1022.99
2023-01-07T09:47:34.893Z,1022.96
2023-01-07T09:48:34.897Z,1023.02
2023-01-07T09:49:34.902Z,1023
2023-01-07T09:50:34.885Z,1023
2023-01-07T09:51:34.943Z,1022.99
2023-01-07T09:52:34.875Z,1022.99
2023-01-07T09:53:34.898Z,1022.94
2023-01-07T09:54:34.888Z,1023
2023-01-07T09:55:34.881Z,1023.01
2023-01-07T09:56:34.915Z,1022.98
2023-01-07T09:57:34.899Z,1023.03
2023-01-07T09:58:37.074Z,1023.03
2023-01-07T09:59:34.877Z,1023.03
2023-01-07T10:00:34.874Z,1022.98
2023-01-07T10:01:34.971Z,1022.96
2023-01-07T10:02:34.984Z,1022.94
2023-01-07T10:03:34.950Z,1022.94
2023-01-07T10:04:34.985Z,1022.97
2023-01-07T10:05:34.876Z,1022.97
2023-01-07T10:06:43.006Z,1022.93
2023-01-07T10:07:34.875Z,1022.93
2023-01-07T10:08:34.884Z,1022.94
2023-01-07T10:09:34.870Z,1022.99
2023-01-07T10:10:34.882Z,1022.98
2023-01-07T10:11:34.870Z,1022.95
2023-01-07T10:12:34.903Z,1022.93
2023-01-07T10:13:34.893Z,1022.93
2023-01-07T10:14:34.876Z,1022.92
2023-01-07T10:15:34.871Z,1022.9
2023-01-07T10:16:34.918Z,1022.88
2023-01-07T10:17:34.872Z,1022.81
2023-01-07T10:18:34.888Z,1022.83
2023-01-07T10:19:34.873Z,1022.78
2023-01-07T10:20:34.876Z,1022.78
2023-01-07T10:21:34.887Z,1022.76
2023-01-07T10:22:34.878Z,1022.72
2023-01-07T10:23:34.890Z,1022.72
2023-01-07T10:24:34.869Z,1022.69
2023-01-07T10:25:34.879Z,1022.69
2023-01-07T10:26:34.874Z,1022.57
2023-01-07T10:27:34.875Z,1022.61
2023-01-07T10:28:34.903Z,1022.57
2023-01-07T10:29:34.886Z,1022.58
2023-01-07T10:30:34.880Z,1022.58
2023-01-07T10:31:34.978Z,1022.51
2023-01-07T10:32:34.886Z,1022.55
2023-01-07T10:33:34.896Z,1022.49
2023-01-07T10:34:34.881Z,1022.44
2023-01-07T10:35:34.894Z,1022.43
2023-01-07T10:36:34.944Z,1022.42
2023-01-07T10:37:35.401Z,1022.34
2023-01-07T10:38:34.906Z,1022.32
2023-01-07T10:39:34.898Z,1022.32
2023-01-07T10:40:34.885Z,1022.32
2023-01-07T10:41:34.898Z,1022.32
2023-01-07T10:42:34.889Z,1022.29
2023-01-07T10:43:34.908Z,1022.23
2023-01-07T10:44:34.905Z,1022.24
2023-01-07T10:45:34.908Z,1022.14
2023-01-07T10:46:34.894Z,1022.09
2023-01-07T10:47:34.881Z,1022.1
2023-01-07T10:48:34.899Z,1022.11
2023-01-07T10:49:34.888Z,1022.07
2023-01-07T10:50:34.882Z,1022.07
2023-01-07T10:51:34.890Z,1022.05
2023-01-07T10:52:34.885Z,1022
2023-01-07T10:53:34.900Z,1021.94
2023-01-07T10:54:34.914Z,1021.97
2023-01-07T10:55:34.892Z,1022
2023-01-07T10:56:36.977Z,1021.95
2023-01-07T10:57:34.904Z,1021.92
2023-01-07T10:58:34.924Z,1021.9
2023-01-07T10:59:34.891Z,1021.87
2023-01-07T11:00:34.878Z,1021.87
2023-01-07T11:01:35.012Z,1021.85
2023-01-07T11:02:34.921Z,1021.81
2023-01-07T11:03:34.899Z,1021.76
2023-01-07T11:04:34.888Z,1021.73
2023-01-07T11:05:34.900Z,1021.71
2023-01-07T11:06:34.911Z,1021.65
2023-01-07T11:07:34.907Z,1021.66
2023-01-07T11:08:34.921Z,1021.7
2023-01-07T11:09:34.919Z,1021.71
2023-01-07T11:10:34.917Z,1021.71
2023-01-07T11:11:34.879Z,1021.65
2023-01-07T11:12:34.880Z,1021.65
2023-01-07T11:13:34.904Z,1021.7
2023-01-07T11:14:34.876Z,1021.65
2023-01-07T11:15:34.904Z,1021.64
2023-01-07T11:16:34.914Z,1021.58
2023-01-07T11:17:34.875Z,1021.55
2023-01-07T11:18:34.898Z,1021.54
2023-01-07T11:19:34.880Z,1021.43
2023-01-07T11:20:34.967Z,1021.43
2023-01-07T11:21:42.879Z,1021.48
2023-01-07T11:22:34.869Z,1021.49
2023-01-07T11:23:34.924Z,1021.49
2023-01-07T11:24:35.394Z,1021.39
2023-01-07T11:25:34.874Z,1021.38
2023-01-07T11:26:34.868Z,1021.38
2023-01-07T11:27:34.921Z,1021.41
2023-01-07T11:28:34.901Z,1021.35
2023-01-07T11:29:34.867Z,1021.35
2023-01-07T11:30:34.872Z,1021.35
2023-01-07T11:31:34.925Z,1021.35
2023-01-07T11:32:34.884Z,1021.33
2023-01-07T11:34:03.010Z,1021.33
2023-01-07T11:34:34.872Z,1021.32
2023-01-07T11:35:34.892Z,1021.3
2023-01-07T11:36:34.870Z,1021.22
2023-01-07T11:37:34.877Z,1021.24
2023-01-07T11:38:34.901Z,1021.18
2023-01-07T11:39:34.890Z,1021.18
2023-01-07T11:40:34.875Z,1021.18
2023-01-07T11:41:34.882Z,1021.22
2023-01-07T11:42:34.902Z,1021.29
2023-01-07T11:43:34.907Z,1021.22
2023-01-07T11:44:34.887Z,1021.22
2023-01-07T11:45:35.025Z,1021.24
2023-01-07T11:46:35.039Z,1021.18
2023-01-07T11:47:34.899Z,1021.1
2023-01-07T11:48:34.896Z,1021.06
2023-01-07T11:49:35.330Z,1021.05
2023-01-07T11:50:34.874Z,1021.05
2023-01-07T11:51:34.882Z,1021.05
2023-01-07T11:52:34.885Z,1020.98
2023-01-07T11:53:34.905Z,1020.97
2023-01-07T11:54:34.904Z,1020.92
2023-01-07T11:55:34.941Z,1020.91
2023-01-07T11:56:34.888Z,1020.91
2023-01-07T11:57:34.879Z,1020.87
2023-01-07T11:58:34.897Z,1020.88
2023-01-07T11:59:34.885Z,1020.83
2023-01-07T12:00:34.867Z,1020.83
2023-01-07T12:01:34.928Z,1020.82
2023-01-07T12:02:34.955Z,1020.85
2023-01-07T12:03:34.950Z,1020.86
2023-01-07T12:04:34.887Z,1020.85
2023-01-07T12:05:34.884Z,1020.88
2023-01-07T12:06:34.891Z,1020.87
2023-01-07T12:07:34.885Z,1020.84
2023-01-07T12:08:34.901Z,1020.83
2023-01-07T12:09:34.885Z,1020.84